• Join FlightAware (Why Join?)
  • Login
  • US Flag 
07:21AM EDT


 

Airport Tracker/Info


-or-


 

Live Flight TrackerFlight Track Log ✈ ASQ6115 ✈ 14-Jun-2013 ✈ KIAH - KMFE

Flight Track Log - Related Links

Times and Time Zones

All times are in EDT time to prevent confusion due to time zone crossing. See the ASQ6115 flight status page for this flight to view local times or setup timezone preferences in your user account.

Time Position Orientation Groundspeed Altitude Reporting Facility
EDT Latitude Longitude Course Direction KTS MPH feet Rate Location/Type
03:00PM 29.9614 -95.3411 190° South 160 184 700  Level Houston Center
03:01PM 29.9275 -95.2922 129° Southeast 238 274 2,200 1,500 Climbing Houston Center
03:02PM 29.8989 -95.2481 127° Southeast 239 275 3,500 2,040 Climbing Houston Center
03:02PM 29.8839 -95.2278 130° Southeast 259 298 4,300 3,060 Climbing Houston Center
03:03PM 29.8544 -95.1836 128° Southeast 250 288 6,700 2,220 Climbing Houston Center
03:04PM 29.5949 -95.4104 191° South  Level FlightAware Approximate
03:04PM 29.7875 -95.1719 171° South 262 302 8,400  Level Houston Center
03:05PM 29.4979 -95.4304 190° South  Level FlightAware Approximate
03:05PM 29.7119 -95.1803 185° South 271 312 10,400  Level Houston Center
03:06PM 29.6153 -95.1928 186° South 300 345 11,600 960 Climbing Houston Center
03:07PM 29.5194 -95.2031 185° South 339 390 12,400 960 Climbing Houston Center
03:08PM 29.4267 -95.2439 201° Southwest 361 415 13,700 1,260 Climbing Houston Center
03:09PM 29.3392 -95.2994 209° Southwest 361 415 15,100 1,440 Climbing Houston Center
03:10PM 29.2450 -95.3908 220° Southwest 366 421 16,800 1,440 Climbing Houston Center
03:11PM 29.1678 -95.4644 220° Southwest 363 418 18,100 1,260 Climbing Houston Center
03:12PM 29.0906 -95.5389 220° Southwest 362 417 19,500 1,260 Climbing Houston Center
03:13PM 29.0131 -95.6128 220° Southwest 363 418 20,800 960 Climbing Houston Center
03:14PM 28.9344 -95.6897 221° Southwest 369 425 21,600 540 Climbing Houston Center
03:15PM 28.8511 -95.7686 220° Southwest 384 442 22,000 180 Climbing Houston Center
03:16PM 28.7447 -95.8700 220° Southwest 412 474 22,000  Level Houston Center
03:17PM 28.6539 -95.9558 220° Southwest 423 487 22,000  Level Houston Center
03:18PM 28.5561 -96.0489 220° Southwest 433 498 22,000  Level Houston Center
03:19PM 28.4628 -96.1372 220° Southwest 435 501 22,000  Level Houston Center
03:20PM 28.3692 -96.2247 219° Southwest 436 502 22,000  Level Houston Center
03:21PM 28.2778 -96.3131 220° Southwest 432 497 22,000  Level Houston Center
03:22PM 28.1858 -96.3975 219° Southwest 428 493 22,000  Level Houston Center
03:23PM 28.0753 -96.5000 219° Southwest 427 491 22,000  Level Houston Center
03:24PM 27.9844 -96.5867 220° Southwest 426 490 22,000  Level Houston Center
03:25PM 27.8933 -96.6714 219° Southwest 425 489 22,000  Level Houston Center
03:26PM 27.8017 -96.7567 219° Southwest 425 489 22,000  Level Houston Center
03:28PM 27.7100 -96.8419 219° Southwest 427 491 22,000  Level Houston Center
03:29PM 27.6183 -96.9267 219° Southwest 426 490 22,000  Level Houston Center
03:30PM 27.5075 -97.0294 219° Southwest 429 494 22,000  Level Houston Center
03:31PM 27.4178 -97.1114 219° Southwest 427 491 22,000  Level Houston Center
03:32PM 27.3272 -97.1947 219° Southwest 423 487 22,000  Level Houston Center
03:33PM 27.2372 -97.2769 219° Southwest 419 482 22,000  Level Houston Center
03:33PM 27.1650 -97.3456 220° Southwest 414 476 22,000  Level Houston Center
03:34PM 27.1481 -97.3600 217° Southwest 417 480 22,000 -420 Level Houston Center
03:34PM 27.0711 -97.4289 219° Southwest 413 475 21,600 -1,020 Descending Houston Center
03:35PM 27.0442 -97.4519 217° Southwest 414 476 21,000 -2,220 Descending Houston Center
03:35PM 26.9869 -97.5061 220° Southwest 370 426 19,400 -2,340 Descending Houston Center
03:36PM 26.9631 -97.5297 221° Southwest 389 448 18,600 -2,460 Descending Houston Center
03:36PM 26.9153 -97.5817 224° Southwest 354 407 16,900 -2,640 Descending Houston Center
03:37PM 26.8886 -97.6100 223° Southwest 351 404 15,900 -2,460 Descending Houston Center
03:37PM 26.8458 -97.6592 226° Southwest 343 395 14,400 -2,460 Descending Houston Center
03:38PM 26.8203 -97.6858 223° Southwest 345 397 13,400 -2,460 Descending Houston Center
03:38PM 26.7761 -97.7342 224° Southwest 347 399 11,900 -1,980 Descending Houston Center
03:39PM 26.7456 -97.7689 225° Southwest 340 391 11,400 -840 Descending Houston Center
03:39PM 26.7064 -97.8114 224° Southwest 353 406 11,100 -540 Descending Houston Center
03:40PM 26.6767 -97.8461 226° Southwest 349 402 10,900 -540 Descending Houston Center
03:40PM 26.6389 -97.8883 225° Southwest 351 404 10,600 -600 Descending Houston Center
03:41PM 26.6036 -97.9267 224° Southwest 345 397 10,300 -600 Descending Houston Center
03:42PM 26.5692 -97.9631 223° Southwest 323 372 10,000 -780 Descending Houston Center
03:42PM 26.5469 -97.9897 227° Southwest 291 335 9,500 -1,500 Descending Houston Center
03:43PM 26.5181 -98.0189 222° Southwest 250 288 8,500 -1,980 Descending Houston Center
03:43PM 26.4914 -98.0497 226° Southwest 262 302 7,500 -1,920 Descending Houston Center
03:44PM 26.4672 -98.0744 222° Southwest 252 290 6,600 -1,860 Descending Houston Center
03:44PM 26.4406 -98.1058 227° Southwest 258 297 5,600 -1,800 Descending Houston Center
03:45PM 26.4167 -98.1325 225° Southwest 259 298 4,800 -1,500 Descending Houston Center
03:45PM 26.3856 -98.1656 224° Southwest 256 295 4,100 -840 Descending Houston Center
03:46PM 26.3656 -98.1858 222° Southwest 253 291 4,000 -420 Descending Houston Center
03:46PM 26.3378 -98.2183 226° Southwest 245 282 3,700 -900 Descending Houston Center
03:47PM 26.3147 -98.2439 225° Southwest 243 280 3,100 -1,380 Descending Houston Center
03:47PM 26.2894 -98.2711 224° Southwest 244 281 2,300 -1,380 Descending Houston Center